Time;durP1;ratioP1;P1;durP2;ratioP2;P2;SDS_P1;SDS_P2;PMS_P1;PMS_P2;Temp;Humidity;BMP_temperature;BMP_pressure;BME280_temperature;BME280_humidity;BME280_pressure;Samples;Min_cycle;Max_cycle;Signal;HPM_P1;HPM_P2
2022/01/17 00:00:20;;;;;;;15.63;2.33;;;5.40;99.90;;;;;;5132511;27;20042;-79
2022/01/17 00:02:49;;;;;;;14.23;2.45;;;6.20;99.90;;;;;;5132168;27;20046;-79
2022/01/17 00:05:15;;;;;;;19.23;2.60;;;5.30;99.90;;;;;;5131862;27;20226;-79
2022/01/17 00:07:42;;;;;;;18.17;2.58;;;5.40;99.90;;;;;;5119386;27;20046;-82
2022/01/17 00:10:09;;;;;;;14.52;2.10;;;5.40;99.90;;;;;;5117062;27;20051;-78
2022/01/17 00:12:53;;;;;;;15.20;1.90;;;5.40;99.90;;;;;;5111259;27;20035;-83
2022/01/17 00:15:29;;;;;;;13.48;1.90;;;5.40;99.90;;;;;;5137186;27;20046;-80
2022/01/17 00:18:41;;;;;;;15.95;2.22;;;5.40;99.90;;;;;;5142552;27;20092;-79
2022/01/17 00:21:37;;;;;;;12.30;1.77;;;5.40;99.90;;;;;;5142515;27;20409;-79
2022/01/17 00:24:03;;;;;;;10.88;2.10;;;5.40;99.90;;;;;;5122195;27;20055;-78
2022/01/17 00:26:44;;;;;;;11.43;2.05;;;5.40;99.90;;;;;;5120715;27;20401;-80
2022/01/17 00:29:10;;;;;;;10.20;1.80;;;5.40;99.90;;;;;;5126818;27;20043;-80
2022/01/17 00:31:35;;;;;;;11.27;1.53;;;6.10;99.90;;;;;;5130216;27;20031;-77
2022/01/17 00:34:01;;;;;;;14.13;1.87;;;5.40;99.90;;;;;;5119935;27;20760;-78
2022/01/17 00:36:26;;;;;;;19.35;2.80;;;5.40;99.90;;;;;;5096243;27;20045;-78
2022/01/17 00:38:52;;;;;;;14.80;2.20;;;5.50;99.90;;;;;;5120660;27;20051;-79
2022/01/17 00:41:18;;;;;;;16.47;2.30;;;5.70;99.90;;;;;;5113520;27;20277;-79
2022/01/17 00:43:43;;;;;;;14.13;2.37;;;5.50;99.90;;;;;;5117826;27;20283;-80
2022/01/17 00:46:09;;;;;;;12.37;2.17;;;5.50;99.90;;;;;;5113589;27;20327;-80
2022/01/17 00:48:35;;;;;;;14.67;2.27;;;5.50;99.90;;;;;;5127410;27;20376;-80
2022/01/17 00:51:13;;;;;;;20.53;2.63;;;5.50;99.90;;;;;;5106882;27;20809;-82
2022/01/17 00:53:42;;;;;;;11.30;1.88;;;5.50;99.90;;;;;;5106930;27;20062;-84
2022/01/17 00:56:13;;;;;;;16.02;1.98;;;5.50;99.90;;;;;;5124949;27;20043;-83
2022/01/17 00:58:39;;;;;;;19.58;2.03;;;5.50;99.90;;;;;;5127800;27;20069;-80
2022/01/17 01:01:30;;;;;;;13.50;2.28;;;5.50;99.90;;;;;;5118797;27;20043;-83
2022/01/17 01:03:58;;;;;;;17.10;2.35;;;5.50;99.90;;;;;;5111203;27;20400;-83
2022/01/17 01:06:24;;;;;;;13.07;3.13;;;5.50;99.90;;;;;;5129456;27;20065;-80
2022/01/17 01:08:49;;;;;;;19.60;2.25;;;5.40;99.90;;;;;;5127603;27;20121;-80
2022/01/17 01:11:15;;;;;;;16.80;2.55;;;6.20;99.90;;;;;;5106859;27;20130;-79
2022/01/17 01:13:41;;;;;;;17.97;3.13;;;5.30;99.90;;;;;;5123183;27;20042;-80
2022/01/17 01:29:47;;;;;;;13.18;2.15;;;5.40;99.90;;;;;;5122349;27;20100;-79
2022/01/17 01:32:17;;;;;;;15.70;1.85;;;5.40;99.90;;;;;;5131074;27;20094;-80
2022/01/17 01:34:47;;;;;;;17.80;2.35;;;5.40;99.90;;;;;;5111508;27;20035;-80
2022/01/17 01:37:13;;;;;;;10.55;2.17;;;5.40;99.90;;;;;;5093971;27;20103;-80
2022/01/17 01:39:38;;;;;;;10.13;1.83;;;5.40;99.90;;;;;;5115332;27;20680;-80
2022/01/17 01:42:11;;;;;;;20.15;2.85;;;5.50;99.90;;;;;;5129875;27;20291;-78
2022/01/17 01:48:45;;;;;;;13.27;2.40;;;5.40;99.90;;;;;;5133498;27;20054;-84
2022/01/17 01:51:20;;;;;;;24.42;2.60;;;5.40;99.90;;;;;;5154343;27;20413;-85
2022/01/17 02:02:09;;;;;;;10.23;1.83;;;5.40;99.90;;;;;;5036008;27;20041;-79
2022/01/17 02:04:35;;;;;;;13.48;2.22;;;5.30;99.90;;;;;;5134283;27;20456;-80
2022/01/17 02:07:01;;;;;;;17.05;2.58;;;5.20;99.90;;;;;;5121856;27;20066;-80
2022/01/17 02:09:43;;;;;;;12.65;2.33;;;5.20;99.90;;;;;;5116957;27;20070;-81
2022/01/17 02:24:20;;;;;;;17.42;2.03;;;5.00;99.90;;;;;;4941150;29;20087;-80
2022/01/17 02:26:48;;;;;;;14.13;1.88;;;5.00;99.90;;;;;;5015082;27;20053;-80
2022/01/17 02:29:14;;;;;;;18.80;2.75;;;5.00;99.90;;;;;;5113578;27;20112;-79
2022/01/17 02:31:40;;;;;;;17.40;2.33;;;6.00;99.90;;;;;;5097895;27;20451;-80
2022/01/17 02:34:06;;;;;;;15.85;2.13;;;5.00;99.90;;;;;;5122680;27;20047;-80
2022/01/17 02:36:48;;;;;;;14.13;2.03;;;5.00;99.90;;;;;;5103803;27;20032;-80
2022/01/17 02:39:14;;;;;;;16.35;2.33;;;5.00;99.90;;;;;;5127775;27;20100;-79
2022/01/17 02:41:42;;;;;;;18.83;2.45;;;4.90;99.90;;;;;;5114668;27;20031;-79
2022/01/17 02:44:09;;;;;;;19.08;2.58;;;4.90;99.90;;;;;;5096671;27;20039;-79
2022/01/17 02:46:34;;;;;;;15.68;1.63;;;4.90;99.90;;;;;;5117063;27;20162;-79
2022/01/17 02:49:02;;;;;;;12.55;2.00;;;5.00;99.90;;;;;;5127712;27;20489;-79
2022/01/17 02:51:28;;;;;;;17.42;2.47;;;5.10;99.90;;;;;;5091103;27;20130;-79
2022/01/17 02:54:01;;;;;;;13.02;1.88;;;5.10;99.90;;;;;;5121022;27;20499;-79
2022/01/17 02:56:27;;;;;;;13.82;2.08;;;5.10;99.90;;;;;;5116170;27;20047;-79
2022/01/17 02:58:54;;;;;;;18.30;2.65;;;5.10;99.90;;;;;;5128393;27;20039;-79
2022/01/17 03:01:24;;;;;;;15.23;1.90;;;5.10;99.90;;;;;;5120513;27;20047;-79
2022/01/17 03:03:50;;;;;;;17.27;2.42;;;5.10;99.90;;;;;;5099943;27;20035;-79
2022/01/17 03:06:17;;;;;;;17.48;2.25;;;5.00;99.90;;;;;;5127684;27;20144;-79
2022/01/17 03:08:44;;;;;;;17.05;2.22;;;5.50;99.90;;;;;;5105020;27;20133;-79
2022/01/17 03:11:12;;;;;;;17.90;2.35;;;5.10;99.90;;;;;;5122461;27;20035;-79
2022/01/17 03:13:39;;;;;;;16.50;2.13;;;5.00;99.90;;;;;;5114587;27;20383;-80
2022/01/17 03:16:12;;;;;;;15.63;2.40;;;5.10;99.90;;;;;;5109191;28;20184;-79
2022/01/17 03:18:41;;;;;;;14.95;1.98;;;5.10;99.90;;;;;;5123949;27;20054;-79
2022/01/17 03:21:09;;;;;;;13.02;2.42;;;5.10;99.90;;;;;;5123097;27;20502;-79
2022/01/17 03:23:36;;;;;;;11.95;2.00;;;5.10;99.90;;;;;;5123814;27;20039;-79
2022/01/17 03:26:04;;;;;;;13.60;2.00;;;5.10;99.90;;;;;;5114452;27;20475;-79
2022/01/17 03:28:30;;;;;;;16.50;2.97;;;5.10;99.90;;;;;;5121860;27;20035;-79
2022/01/17 03:30:57;;;;;;;13.30;2.22;;;5.10;99.90;;;;;;5111531;27;20035;-79
2022/01/17 03:33:23;;;;;;;14.13;2.20;;;5.10;99.90;;;;;;5122148;27;20031;-79
2022/01/17 03:36:09;;;;;;;14.50;2.38;;;6.00;99.90;;;;;;5108724;28;20051;-84
2022/01/17 03:38:35;;;;;;;14.98;2.13;;;5.20;99.90;;;;;;5112354;27;20428;-80
2022/01/17 03:41:02;;;;;;;17.63;2.67;;;5.20;99.90;;;;;;5131052;27;20039;-80
2022/01/17 03:43:28;;;;;;;13.50;2.58;;;5.20;99.90;;;;;;5109543;28;20042;-80
2022/01/17 03:46:51;;;;;;;18.50;2.42;;;5.30;99.90;;;;;;5125310;27;20128;-84
2022/01/17 03:56:42;;;;;;;13.25;2.10;;;5.30;99.90;;;;;;5042337;28;20098;-83
2022/01/17 03:59:26;;;;;;;13.77;1.85;;;5.30;99.90;;;;;;5096543;28;20120;-83
2022/01/17 04:02:16;;;;;;;17.83;1.95;;;5.30;99.90;;;;;;5116804;27;20046;-83
2022/01/17 04:05:01;;;;;;;14.10;1.75;;;5.30;99.90;;;;;;5120475;27;20049;-83
2022/01/17 04:10:53;;;;;;;;;;;5.30;99.90;;;;;;5117175;27;20403;-83
2022/01/17 04:13:23;;;;;;;12.45;2.30;;;5.20;99.90;;;;;;5119920;27;19923;-84
2022/01/17 04:16:26;;;;;;;12.07;1.80;;;5.20;99.90;;;;;;5126565;27;20031;-83
2022/01/17 04:18:57;;;;;;;15.52;2.40;;;5.20;99.90;;;;;;5112356;27;20526;-84
2022/01/17 04:21:35;;;;;;;12.57;2.55;;;5.20;99.90;;;;;;5133715;27;20034;-78
2022/01/17 04:24:09;;;;;;;12.70;1.98;;;5.20;99.90;;;;;;5132570;27;20039;-81
2022/01/17 04:26:35;;;;;;;14.65;2.50;;;5.50;99.90;;;;;;5115887;27;20415;-79
2022/01/17 04:29:01;;;;;;;12.95;2.05;;;5.40;99.90;;;;;;5121143;27;20039;-79
2022/01/17 04:31:26;;;;;;;17.70;2.17;;;5.40;99.90;;;;;;5110876;27;20067;-79
2022/01/17 04:33:53;;;;;;;11.67;1.80;;;5.40;99.90;;;;;;5123272;27;20037;-79
2022/01/17 04:36:19;;;;;;;12.20;1.83;;;5.50;99.90;;;;;;5099594;27;20296;-79
2022/01/17 04:38:45;;;;;;;10.80;2.27;;;5.60;99.90;;;;;;5123535;27;20039;-79
2022/01/17 04:41:16;;;;;;;13.30;2.45;;;5.60;99.90;;;;;;5115614;27;20655;-79
2022/01/17 04:46:10;;;;;;;19.35;2.17;;;5.80;99.90;;;;;;5126030;27;20046;-79
2022/01/17 04:48:37;;;;;;;14.02;2.05;;;5.70;99.90;;;;;;5122835;27;20121;-79
2022/01/17 04:51:03;;;;;;;14.45;2.35;;;5.80;99.90;;;;;;5110949;27;20246;-79
2022/01/17 04:53:30;;;;;;;15.88;2.30;;;5.80;99.90;;;;;;5123774;27;20141;-79
2022/01/17 04:55:55;;;;;;;;;;;5.80;99.90;;;;;;5121745;27;20098;-79
2022/01/17 04:58:21;;;;;;;17.45;2.28;;;5.90;99.90;;;;;;5115736;27;19916;-79
2022/01/17 05:04:31;;;;;;;15.18;1.98;;;6.00;99.90;;;;;;5024511;27;20048;-79
2022/01/17 05:06:56;;;;;;;12.82;3.03;;;5.90;99.90;;;;;;5116496;27;20039;-79
2022/01/17 05:09:22;;;;;;;19.65;2.47;;;6.00;99.90;;;;;;5123900;27;20042;-80
2022/01/17 05:11:48;;;;;;;18.70;2.80;;;6.00;99.90;;;;;;5122236;27;20035;-79
2022/01/17 05:14:14;;;;;;;13.52;2.60;;;6.50;99.90;;;;;;5121495;27;20486;-80
2022/01/17 05:16:46;;;;;;;17.30;3.08;;;6.10;99.90;;;;;;5130580;27;20645;-81
2022/01/17 05:21:56;;;;;;;15.90;2.55;;;6.10;99.90;;;;;;5133264;27;20050;-80
2022/01/17 05:24:22;;;;;;;19.88;2.30;;;6.10;99.90;;;;;;5094099;27;20042;-78
2022/01/17 05:26:48;;;;;;;15.03;3.07;;;6.10;99.90;;;;;;5110296;27;20039;-79
2022/01/17 05:29:14;;;;;;;18.88;2.72;;;6.60;99.90;;;;;;5113266;27;20783;-83
2022/01/17 05:31:40;;;;;;;20.30;2.85;;;6.10;99.90;;;;;;5141960;27;20077;-85
2022/01/17 05:34:06;;;;;;;18.45;3.58;;;6.10;99.90;;;;;;5149231;27;20030;-82
2022/01/17 05:36:35;;;;;;;18.90;2.50;;;6.20;99.90;;;;;;5126017;27;20099;-86
2022/01/17 05:39:00;;;;;;;18.30;3.13;;;6.20;99.90;;;;;;5136256;27;20111;-81
2022/01/17 05:41:26;;;;;;;21.33;2.77;;;6.30;99.90;;;;;;5127858;27;20042;-81
2022/01/17 05:44:13;;;;;;;17.48;3.20;;;6.20;99.90;;;;;;5149874;27;20283;-83
2022/01/17 05:46:39;;;;;;;13.98;3.00;;;6.20;99.90;;;;;;5126031;27;20042;-82
2022/01/17 05:49:05;;;;;;;15.83;3.60;;;6.30;99.90;;;;;;5123086;27;20531;-80
2022/01/17 05:51:30;;;;;;;17.05;3.13;;;6.80;99.90;;;;;;5128708;27;20042;-81
2022/01/17 05:53:56;;;;;;;23.60;3.65;;;6.20;99.90;;;;;;5133337;27;20031;-79
2022/01/17 05:56:22;;;;;;;17.47;3.60;;;6.30;99.90;;;;;;5125542;27;20168;-80
2022/01/17 05:58:48;;;;;;;16.02;3.55;;;6.20;99.90;;;;;;5100824;27;20311;-80
2022/01/17 06:01:14;;;;;;;20.13;3.13;;;6.20;99.90;;;;;;5107453;27;20071;-80
2022/01/17 06:03:40;;;;;;;13.63;3.85;;;6.20;99.90;;;;;;5113685;27;20172;-80
2022/01/17 06:06:06;;;;;;;21.08;3.60;;;6.30;99.90;;;;;;5120888;27;20066;-80
2022/01/17 06:08:32;;;;;;;18.08;3.20;;;6.30;99.90;;;;;;5117295;27;20375;-79
2022/01/17 06:10:58;;;;;;;16.92;3.45;;;6.30;99.90;;;;;;5117912;27;20054;-80
2022/01/17 06:13:24;;;;;;;22.35;3.08;;;6.20;99.90;;;;;;5107078;27;20042;-80
2022/01/17 06:15:50;;;;;;;25.70;4.07;;;6.30;99.90;;;;;;5101744;27;20039;-80
2022/01/17 06:18:16;;;;;;;21.45;3.50;;;6.20;99.90;;;;;;5119285;27;20130;-80
2022/01/17 06:20:42;;;;;;;15.50;3.13;;;6.30;99.90;;;;;;5117077;27;20512;-80
2022/01/17 06:23:08;;;;;;;17.65;3.90;;;6.30;99.90;;;;;;5105907;27;20035;-81
2022/01/17 06:25:33;;;;;;;18.00;3.07;;;6.30;99.90;;;;;;5112996;27;20039;-81
2022/01/17 06:28:00;;;;;;;22.67;3.40;;;6.20;99.90;;;;;;5107843;27;20319;-80
2022/01/17 06:30:26;;;;;;;22.25;3.65;;;6.30;99.90;;;;;;5104866;27;20038;-80
2022/01/17 06:32:52;;;;;;;19.30;3.55;;;6.30;99.90;;;;;;5112018;27;20035;-80
2022/01/17 06:35:18;;;;;;;25.52;4.40;;;6.20;99.90;;;;;;5125209;27;20097;-81
2022/01/17 06:37:48;;;;;;;24.35;4.10;;;6.80;99.90;;;;;;5112179;27;20043;-80
2022/01/17 06:40:15;;;;;;;20.25;4.22;;;6.10;99.90;;;;;;5124267;27;20054;-80
2022/01/17 06:42:41;;;;;;;31.45;5.25;;;6.10;99.90;;;;;;5108891;27;20418;-79
2022/01/17 06:45:07;;;;;;;29.00;3.97;;;6.10;99.90;;;;;;5103238;27;20051;-80
2022/01/17 06:47:35;;;;;;;35.25;4.72;;;6.10;99.90;;;;;;5093837;27;20035;-80
2022/01/17 06:50:04;;;;;;;27.88;3.92;;;6.10;99.90;;;;;;5108831;27;20423;-85
2022/01/17 06:52:55;;;;;;;24.67;4.10;;;6.10;99.90;;;;;;5114761;27;20039;-85
2022/01/17 06:55:30;;;;;;;29.02;3.90;;;6.10;99.90;;;;;;5102565;27;20110;-83
2022/01/17 06:57:56;;;;;;;24.60;4.57;;;6.10;99.90;;;;;;5116170;27;20534;-79
2022/01/17 07:00:22;;;;;;;21.45;3.58;;;6.10;99.90;;;;;;5099622;27;20125;-79
2022/01/17 07:02:48;;;;;;;29.55;4.00;;;6.10;99.90;;;;;;5117501;27;20043;-80
2022/01/17 07:05:13;;;;;;;27.38;4.18;;;6.10;99.90;;;;;;5116594;27;20500;-80
2022/01/17 07:07:39;;;;;;;32.95;4.90;;;6.10;99.90;;;;;;5108985;27;20028;-80
2022/01/17 07:10:05;;;;;;;25.85;4.35;;;6.20;99.90;;;;;;5107044;27;20035;-80
2022/01/17 07:12:31;;;;;;;32.67;4.47;;;6.10;99.90;;;;;;5124699;27;20064;-80
2022/01/17 07:14:57;;;;;;;21.83;3.80;;;6.10;99.90;;;;;;5118106;27;20031;-80
2022/01/17 07:17:23;;;;;;;28.97;4.33;;;6.20;99.90;;;;;;5115787;27;20524;-80
2022/01/17 07:19:48;;;;;;;25.30;3.57;;;6.20;99.90;;;;;;5120638;27;20293;-79
2022/01/17 07:22:14;;;;;;;32.33;4.10;;;6.20;99.90;;;;;;5103549;27;20284;-78
2022/01/17 07:24:40;;;;;;;23.97;4.30;;;6.10;99.90;;;;;;5116262;27;20353;-78
2022/01/17 07:27:06;;;;;;;25.02;3.65;;;6.20;99.90;;;;;;5081984;27;20073;-78
2022/01/17 07:29:31;;;;;;;21.00;4.05;;;6.20;99.90;;;;;;5087165;27;20042;-78
2022/01/17 07:31:58;;;;;;;24.88;3.45;;;6.70;99.90;;;;;;5109784;27;20171;-78
2022/01/17 07:34:24;;;;;;;22.38;3.38;;;6.30;99.90;;;;;;5106090;27;20035;-77
2022/01/17 07:36:50;;;;;;;31.80;3.95;;;6.30;99.90;;;;;;5114746;27;20379;-78
2022/01/17 07:39:16;;;;;;;39.80;4.57;;;6.30;99.90;;;;;;5097316;27;20639;-78
2022/01/17 07:41:43;;;;;;;29.02;4.05;;;6.30;99.90;;;;;;5099001;27;20461;-77
2022/01/17 07:44:18;;;;;;;30.42;3.63;;;6.40;99.90;;;;;;5116390;27;20074;-78
2022/01/17 07:46:53;;;;;;;25.52;3.83;;;6.40;99.90;;;;;;5107518;27;20092;-78
2022/01/17 07:49:22;;;;;;;26.35;4.28;;;6.40;99.90;;;;;;5110158;27;20398;-78
2022/01/17 07:51:58;;;;;;;24.25;3.15;;;6.40;99.90;;;;;;5121536;27;20045;-78
2022/01/17 07:54:26;;;;;;;29.42;4.30;;;6.40;99.90;;;;;;5114116;27;20035;-78
2022/01/17 07:56:52;;;;;;;30.77;4.32;;;6.50;99.90;;;;;;5126819;27;20449;-78
2022/01/17 07:59:19;;;;;;;27.35;4.10;;;6.50;99.90;;;;;;5088210;27;20046;-78
2022/01/17 08:01:45;;;;;;;29.00;4.68;;;6.90;99.90;;;;;;5120681;27;20051;-78
2022/01/17 08:04:11;;;;;;;24.95;3.60;;;6.50;99.90;;;;;;5108426;27;20122;-78
2022/01/17 08:06:38;;;;;;;;;;;6.60;99.90;;;;;;5115543;27;20046;-78
2022/01/17 08:09:30;;;;;;;24.30;3.92;;;6.70;99.90;;;;;;5106180;27;19923;-78
2022/01/17 08:11:57;;;;;;;24.25;3.80;;;6.90;99.90;;;;;;5115737;27;20043;-78
2022/01/17 08:14:24;;;;;;;24.95;3.17;;;6.70;99.90;;;;;;5120122;27;20424;-78
2022/01/17 08:16:53;;;;;;;25.08;3.60;;;6.70;99.90;;;;;;5109307;27;20051;-78
2022/01/17 08:19:20;;;;;;;24.75;3.45;;;6.80;99.90;;;;;;5089369;27;20047;-78
2022/01/17 08:21:51;;;;;;;32.47;4.82;;;6.80;99.90;;;;;;5107132;27;20035;-78
2022/01/17 08:24:20;;;;;;;23.80;4.15;;;6.80;99.90;;;;;;5091090;27;20050;-78
2022/01/17 08:26:46;;;;;;;28.85;3.95;;;6.90;99.90;;;;;;5114098;27;20118;-77
2022/01/17 08:29:12;;;;;;;;;;;6.90;99.90;;;;;;5107881;27;20735;-78
2022/01/17 08:31:39;;;;;;;26.45;3.95;;;6.90;99.90;;;;;;5114875;27;19919;-78
2022/01/17 08:34:05;;;;;;;26.50;3.42;;;6.90;99.90;;;;;;5099695;28;20085;-78
2022/01/17 08:36:31;;;;;;;38.42;4.38;;;7.00;99.90;;;;;;5100444;28;20079;-78
2022/01/17 08:38:57;;;;;;;30.27;3.72;;;7.00;99.90;;;;;;5106861;27;20089;-77
2022/01/17 08:41:22;;;;;;;21.70;4.47;;;8.00;99.90;;;;;;5104016;27;20062;-77
2022/01/17 08:43:49;;;;;;;31.95;4.30;;;7.10;99.90;;;;;;5094845;27;20273;-78
2022/01/17 08:46:16;;;;;;;19.23;3.88;;;7.50;99.90;;;;;;5109867;27;20493;-78
2022/01/17 08:48:42;;;;;;;21.85;3.92;;;7.20;99.90;;;;;;5116768;27;20474;-77
2022/01/17 08:51:08;;;;;;;25.15;3.72;;;7.20;99.90;;;;;;5096093;28;20040;-78
2022/01/17 08:53:35;;;;;;;23.25;4.57;;;7.30;99.90;;;;;;5104055;28;20541;-78
2022/01/17 08:56:00;;;;;;;27.33;4.00;;;7.40;99.90;;;;;;5109070;27;20434;-78
2022/01/17 08:58:26;;;;;;;25.43;3.80;;;7.40;99.90;;;;;;5107703;27;20129;-77
2022/01/17 09:00:52;;;;;;;33.65;4.50;;;7.40;99.90;;;;;;5097462;27;20285;-78
2022/01/17 09:03:19;;;;;;;29.70;5.75;;;7.40;99.90;;;;;;5102359;28;20076;-78
2022/01/17 09:05:45;;;;;;;29.23;5.20;;;7.50;99.90;;;;;;5118952;28;20390;-78
2022/01/17 09:08:11;;;;;;;31.60;4.55;;;7.50;99.90;;;;;;5105871;28;20036;-78
2022/01/17 09:10:38;;;;;;;29.08;5.10;;;7.50;99.90;;;;;;5100763;28;20487;-78
2022/01/17 09:13:07;;;;;;;32.92;4.32;;;7.60;99.90;;;;;;5102650;28;20078;-78
2022/01/17 09:15:33;;;;;;;35.08;4.93;;;7.50;99.90;;;;;;5120722;28;20043;-78
2022/01/17 09:17:59;;;;;;;30.20;4.03;;;7.70;99.90;;;;;;5121402;28;20055;-78
2022/01/17 09:20:25;;;;;;;25.35;4.85;;;8.60;99.90;;;;;;5090155;28;20402;-77
2022/01/17 09:22:51;;;;;;;41.45;4.85;;;7.80;99.90;;;;;;5125955;28;20054;-78
2022/01/17 09:25:17;;;;;;;31.13;4.35;;;7.90;99.90;;;;;;5096903;28;20075;-77
2022/01/17 09:27:43;;;;;;;24.90;4.17;;;7.90;99.90;;;;;;5091201;28;20063;-77
2022/01/17 09:30:11;;;;;;;27.23;4.45;;;7.90;99.90;;;;;;5089528;28;20285;-78
2022/01/17 09:32:38;;;;;;;33.22;4.15;;;8.00;99.90;;;;;;5112304;28;20447;-78
2022/01/17 09:35:11;;;;;;;33.17;4.32;;;8.00;99.90;;;;;;5088992;28;20399;-78
2022/01/17 09:37:37;;;;;;;33.50;5.07;;;8.00;99.90;;;;;;5106355;28;20484;-78
2022/01/17 09:40:04;;;;;;;;;;;8.00;99.90;;;;;;5125714;28;20058;-78
2022/01/17 09:42:35;;;;;;;26.02;3.97;;;8.10;99.90;;;;;;5106392;28;20622;-78
2022/01/17 09:45:05;;;;;;;25.67;5.25;;;8.00;99.90;;;;;;5106786;28;20429;-78
2022/01/17 09:47:34;;;;;;;28.60;4.45;;;8.20;99.90;;;;;;5106817;28;20040;-78
2022/01/17 09:50:01;;;;;;;30.83;5.18;;;8.20;99.90;;;;;;5085790;28;20478;-78
2022/01/17 09:52:35;;;;;;;35.78;5.35;;;8.20;99.90;;;;;;5107250;28;20486;-78
2022/01/17 09:55:05;;;;;;;33.85;5.43;;;8.20;99.90;;;;;;5119304;28;20375;-78
2022/01/17 09:57:35;;;;;;;38.97;5.97;;;8.20;99.90;;;;;;5115573;28;20483;-78
2022/01/17 10:00:02;;;;;;;34.20;5.13;;;8.30;99.90;;;;;;5109825;28;20344;-78
2022/01/17 10:02:28;;;;;;;38.53;5.38;;;8.40;99.90;;;;;;5125996;27;20047;-78
2022/01/17 10:04:53;;;;;;;33.22;5.70;;;8.50;99.90;;;;;;5117594;27;20050;-78
2022/01/17 10:07:20;;;;;;;32.38;5.28;;;8.50;99.90;;;;;;5117451;27;20483;-78
2022/01/17 10:09:53;;;;;;;;;;;8.70;99.90;;;;;;5106206;27;20050;-77
2022/01/17 10:12:19;;;;;;;33.13;5.80;;;8.80;99.90;;;;;;5110470;27;19924;-77
2022/01/17 10:14:58;;;;;;;33.35;5.72;;;8.80;99.90;;;;;;5114765;27;20041;-77
2022/01/17 10:17:44;;;;;;;35.53;5.25;;;8.80;99.90;;;;;;5108673;28;20093;-78
2022/01/17 10:20:13;;;;;;;35.95;5.65;;;8.80;99.90;;;;;;5107395;28;20491;-78
2022/01/17 10:22:51;;;;;;;35.90;6.13;;;8.80;99.90;;;;;;5109406;28;20039;-77
2022/01/17 10:28:36;;;;;;;32.47;5.55;;;8.70;99.90;;;;;;5094988;28;20040;-78
2022/01/17 10:31:32;;;;;;;36.30;5.43;;;9.10;99.90;;;;;;5111642;27;20058;-77
2022/01/17 10:36:47;;;;;;;37.30;5.68;;;9.70;99.90;;;;;;5100276;28;20036;-78
2022/01/17 10:39:14;;;;;;;33.70;5.53;;;9.50;99.90;;;;;;5121942;27;20047;-77
2022/01/17 10:41:39;;;;;;;;;;;9.30;99.90;;;;;;5122110;27;20114;-77
2022/01/17 10:44:06;;;;;;;39.88;5.95;;;9.20;99.90;;;;;;5110012;27;20010;-78
2022/01/17 10:46:32;;;;;;;31.67;5.57;;;9.90;99.90;;;;;;5113119;27;20047;-77
2022/01/17 10:48:58;;;;;;;33.15;5.65;;;9.00;99.90;;;;;;5123404;27;20069;-77
2022/01/17 10:51:32;;;;;;;39.63;6.13;;;9.20;99.90;;;;;;5119694;27;20161;-77
2022/01/17 10:53:58;;;;;;;37.40;5.07;;;9.40;99.90;;;;;;5116317;27;20043;-77
2022/01/17 10:56:25;;;;;;;;;;;9.40;99.90;;;;;;5108044;28;20032;-77
2022/01/17 10:59:03;;;;;;;33.13;6.15;;;9.40;99.90;;;;;;5108673;27;19984;-78
2022/01/17 11:01:36;;;;;;;39.80;6.55;;;9.50;99.90;;;;;;5109298;27;20074;-77
2022/01/17 11:04:08;;;;;;;33.85;5.75;;;10.00;99.90;;;;;;5090930;28;20071;-77
2022/01/17 11:06:47;;;;;;;39.65;6.65;;;10.50;99.90;;;;;;5107551;28;20043;-78
2022/01/17 11:09:13;;;;;;;30.73;5.55;;;11.10;99.90;;;;;;5098052;28;20043;-78
2022/01/17 11:11:40;;;;;;;33.85;5.60;;;11.20;99.90;;;;;;5113161;27;20038;-77
2022/01/17 11:14:09;;;;;;;42.67;6.60;;;10.90;99.90;;;;;;5112572;27;20035;-78
2022/01/17 11:16:37;;;;;;;34.13;5.90;;;10.50;99.90;;;;;;5107499;28;20088;-77
2022/01/17 11:20:03;;;;;;;38.97;6.30;;;10.30;99.90;;;;;;5118740;27;20435;-77
2022/01/17 11:21:49;;;;;;;36.17;5.85;;;10.20;99.90;;;;;;5114254;27;20059;-77
2022/01/17 11:24:15;;;;;;;;;;;10.50;99.90;;;;;;5127567;27;20494;-78
2022/01/17 11:26:42;;;;;;;30.25;6.43;;;11.00;99.90;;;;;;5118141;27;19915;-78
2022/01/17 11:29:08;;;;;;;34.65;5.50;;;11.40;99.90;;;;;;5116750;27;20040;-78
2022/01/17 11:31:34;;;;;;;38.05;5.57;;;11.30;99.90;;;;;;5107075;28;20069;-78
2022/01/17 11:34:00;;;;;;;38.00;6.60;;;11.10;99.90;;;;;;5100306;27;20074;-78
2022/01/17 11:36:26;;;;;;;40.05;6.72;;;10.70;99.90;;;;;;5113676;27;20561;-79
2022/01/17 11:38:54;;;;;;;;;;;10.40;99.90;;;;;;5090774;28;20031;-79
2022/01/17 11:41:27;;;;;;;34.50;6.30;;;10.30;99.90;;;;;;5122755;27;20382;-78
2022/01/17 11:43:59;;;;;;;40.00;5.80;;;10.00;99.90;;;;;;5095993;28;20403;-78
2022/01/17 11:46:30;;;;;;;41.05;6.00;;;9.90;99.90;;;;;;5107835;28;20509;-80
2022/01/17 11:48:58;;;;;;;38.42;5.88;;;9.80;99.90;;;;;;5106006;28;21325;-79
2022/01/17 11:51:37;;;;;;;44.58;8.15;;;9.70;99.90;;;;;;5107107;28;20044;-79
2022/01/17 11:54:18;;;;;;;37.55;6.35;;;9.50;99.90;;;;;;5109801;27;20043;-79
2022/01/17 11:56:56;;;;;;;51.65;7.88;;;9.60;99.90;;;;;;5125095;27;20035;-79
2022/01/17 11:59:38;;;;;;;41.63;7.18;;;9.60;99.90;;;;;;5103283;28;20028;-79
2022/01/17 12:02:10;;;;;;;40.92;6.45;;;9.60;99.90;;;;;;5147984;27;20495;-79
2022/01/17 12:04:36;;;;;;;40.08;6.38;;;9.60;99.90;;;;;;5124961;27;20479;-79
2022/01/17 12:07:02;;;;;;;39.35;6.38;;;9.60;99.90;;;;;;5090696;28;20038;-76
2022/01/17 12:09:29;;;;;;;41.10;6.95;;;10.10;99.90;;;;;;5110445;27;20523;-77
2022/01/17 12:12:04;;;;;;;39.03;6.45;;;10.50;99.90;;;;;;5126674;27;20042;-77
2022/01/17 12:14:51;;;;;;;44.03;7.15;;;10.70;99.90;;;;;;5106850;28;20235;-77
2022/01/17 12:17:20;;;;;;;44.63;7.80;;;10.70;99.90;;;;;;5107758;27;20113;-77
2022/01/17 12:20:21;;;;;;;40.38;7.10;;;10.70;99.90;;;;;;5105049;27;20035;-77
2022/01/17 12:22:47;;;;;;;38.60;6.70;;;11.00;99.90;;;;;;5043329;28;20150;-77
2022/01/17 12:25:25;;;;;;;30.85;6.15;;;11.20;99.90;;;;;;5095910;28;20165;-78
2022/01/17 12:28:03;;;;;;;37.25;5.97;;;10.90;99.90;;;;;;5114606;27;20047;-78
2022/01/17 12:30:56;;;;;;;39.15;6.80;;;10.60;99.90;;;;;;5106827;27;20039;-77
2022/01/17 12:33:37;;;;;;;40.72;6.47;;;10.30;99.90;;;;;;5091898;28;20377;-77
2022/01/17 12:36:29;;;;;;;42.42;6.40;;;10.20;99.90;;;;;;5107587;27;20126;-77
2022/01/17 12:39:14;;;;;;;39.80;6.57;;;9.90;99.90;;;;;;5096604;28;20048;-77
2022/01/17 12:41:41;;;;;;;40.63;6.38;;;9.80;99.90;;;;;;5107785;27;20066;-77
2022/01/17 12:44:13;;;;;;;40.42;6.32;;;9.80;99.90;;;;;;5107226;27;20046;-77
2022/01/17 12:46:44;;;;;;;44.35;7.60;;;9.70;99.90;;;;;;5114931;27;20073;-77
2022/01/17 12:49:11;;;;;;;35.38;5.13;;;9.70;99.90;;;;;;5102140;28;20093;-77
2022/01/17 12:51:44;;;;;;;38.10;6.10;;;9.70;99.90;;;;;;5113276;27;20068;-78
2022/01/17 12:54:16;;;;;;;38.58;6.40;;;9.70;99.90;;;;;;5111396;27;20095;-78
2022/01/17 12:56:48;;;;;;;40.45;6.80;;;9.70;99.90;;;;;;5113133;27;20073;-78
2022/01/17 12:59:17;;;;;;;34.20;5.90;;;9.70;99.90;;;;;;5104713;28;20134;-79
2022/01/17 13:01:45;;;;;;;36.92;6.25;;;9.70;99.90;;;;;;5107878;28;20051;-78
2022/01/17 13:04:13;;;;;;;32.85;6.13;;;9.70;99.90;;;;;;5110094;28;20692;-79
2022/01/17 13:06:40;;;;;;;38.97;6.70;;;9.70;99.90;;;;;;5110794;28;20077;-79
2022/01/17 13:09:21;;;;;;;39.85;6.22;;;9.70;99.90;;;;;;5104902;28;20046;-79
2022/01/17 13:11:49;;;;;;;43.33;6.97;;;9.80;99.90;;;;;;5105863;28;20586;-79
2022/01/17 13:14:20;;;;;;;41.30;7.15;;;9.70;99.90;;;;;;5111331;28;20046;-79
2022/01/17 13:16:48;;;;;;;39.38;5.80;;;9.60;99.90;;;;;;5108704;28;20459;-78
2022/01/17 13:19:15;;;;;;;47.45;6.88;;;9.60;99.90;;;;;;5112311;28;20043;-79
2022/01/17 13:21:43;;;;;;;41.58;7.25;;;9.60;99.90;;;;;;5100647;28;20511;-78
2022/01/17 13:24:17;;;;;;;52.42;7.65;;;9.50;99.90;;;;;;5108593;28;20043;-79
2022/01/17 13:26:56;;;;;;;49.67;7.35;;;9.50;99.90;;;;;;5103808;28;20106;-79
2022/01/17 13:29:23;;;;;;;41.17;6.78;;;9.40;99.90;;;;;;5104450;28;20500;-79
2022/01/17 13:31:49;;;;;;;41.90;6.38;;;9.50;99.90;;;;;;5115043;28;20043;-78
2022/01/17 13:34:16;;;;;;;36.55;5.78;;;9.50;99.90;;;;;;5125993;27;20095;-78
2022/01/17 13:36:43;;;;;;;37.22;6.07;;;9.50;99.90;;;;;;5129047;27;20043;-79
2022/01/17 13:39:11;;;;;;;36.85;5.40;;;9.50;99.90;;;;;;5110863;27;20143;-79
2022/01/17 13:41:50;;;;;;;33.45;6.10;;;9.50;99.90;;;;;;5115160;27;20039;-79
2022/01/17 13:44:21;;;;;;;40.08;6.25;;;9.40;99.90;;;;;;5109798;28;20027;-79
2022/01/17 13:47:00;;;;;;;37.67;5.45;;;9.40;99.90;;;;;;5108970;28;20036;-79
2022/01/17 13:49:29;;;;;;;30.58;6.15;;;9.40;99.90;;;;;;5109653;27;20056;-79
2022/01/17 13:51:57;;;;;;;32.13;5.57;;;9.30;99.90;;;;;;5126688;27;20037;-79
2022/01/17 13:54:31;;;;;;;43.08;6.93;;;9.30;99.90;;;;;;5110407;27;20046;-79
2022/01/17 13:56:59;;;;;;;42.35;7.50;;;9.20;99.90;;;;;;5112991;27;20039;-79
2022/01/17 13:59:26;;;;;;;43.05;7.45;;;9.30;99.90;;;;;;5117482;27;20505;-79
2022/01/17 14:01:52;;;;;;;41.47;7.00;;;9.30;99.90;;;;;;5124428;27;20046;-79
2022/01/17 14:04:20;;;;;;;33.55;6.13;;;9.30;99.90;;;;;;5099366;27;20039;-79